sensor_id;sensor_type;location;lat;lon;timestamp;P1;durP1;ratioP1;P2;durP2;ratioP2
48847;SDS011;36611;51.638;5.784;2022-08-19T00:01:40;24.00;;;20.55;;
48847;SDS011;36611;51.638;5.784;2022-08-19T00:04:09;27.48;;;21.00;;
48847;SDS011;36611;51.638;5.784;2022-08-19T00:06:39;21.90;;;19.55;;
48847;SDS011;36611;51.638;5.784;2022-08-19T00:09:07;21.27;;;19.00;;
48847;SDS011;36611;51.638;5.784;2022-08-19T00:11:36;23.85;;;20.67;;
48847;SDS011;36611;51.638;5.784;2022-08-19T00:14:08;23.65;;;20.52;;
48847;SDS011;36611;51.638;5.784;2022-08-19T00:16:36;22.67;;;20.38;;
48847;SDS011;36611;51.638;5.784;2022-08-19T00:19:05;21.83;;;19.52;;
48847;SDS011;36611;51.638;5.784;2022-08-19T00:21:32;22.15;;;19.27;;
48847;SDS011;36611;51.638;5.784;2022-08-19T00:24:03;22.17;;;19.58;;
48847;SDS011;36611;51.638;5.784;2022-08-19T00:26:29;22.35;;;19.95;;
48847;SDS011;36611;51.638;5.784;2022-08-19T00:28:56;20.83;;;18.73;;
48847;SDS011;36611;51.638;5.784;2022-08-19T00:31:22;22.15;;;18.83;;
48847;SDS011;36611;51.638;5.784;2022-08-19T00:33:49;22.40;;;19.13;;
48847;SDS011;36611;51.638;5.784;2022-08-19T00:36:16;21.55;;;19.17;;
48847;SDS011;36611;51.638;5.784;2022-08-19T00:38:43;22.40;;;20.10;;
48847;SDS011;36611;51.638;5.784;2022-08-19T00:41:14;21.42;;;19.02;;
48847;SDS011;36611;51.638;5.784;2022-08-19T00:43:50;24.95;;;22.20;;
48847;SDS011;36611;51.638;5.784;2022-08-19T00:46:26;25.60;;;22.85;;
48847;SDS011;36611;51.638;5.784;2022-08-19T00:48:54;24.77;;;22.05;;
48847;SDS011;36611;51.638;5.784;2022-08-19T00:51:24;24.88;;;21.50;;
48847;SDS011;36611;51.638;5.784;2022-08-19T00:53:57;21.02;;;18.83;;
48847;SDS011;36611;51.638;5.784;2022-08-19T00:56:25;17.35;;;14.98;;
48847;SDS011;36611;51.638;5.784;2022-08-19T00:58:54;16.85;;;14.60;;
48847;SDS011;36611;51.638;5.784;2022-08-19T01:01:22;15.90;;;13.95;;
48847;SDS011;36611;51.638;5.784;2022-08-19T01:03:52;14.70;;;12.88;;
48847;SDS011;36611;51.638;5.784;2022-08-19T01:06:24;19.67;;;16.43;;
48847;SDS011;36611;51.638;5.784;2022-08-19T01:08:52;20.73;;;17.73;;
48847;SDS011;36611;51.638;5.784;2022-08-19T01:11:20;18.48;;;16.58;;
48847;SDS011;36611;51.638;5.784;2022-08-19T01:13:52;17.80;;;14.75;;
48847;SDS011;36611;51.638;5.784;2022-08-19T01:16:19;15.95;;;14.35;;
48847;SDS011;36611;51.638;5.784;2022-08-19T01:18:49;16.92;;;14.88;;
48847;SDS011;36611;51.638;5.784;2022-08-19T01:21:18;14.25;;;12.80;;
48847;SDS011;36611;51.638;5.784;2022-08-19T01:23:53;14.52;;;12.77;;
48847;SDS011;36611;51.638;5.784;2022-08-19T01:26:22;15.38;;;13.77;;
48847;SDS011;36611;51.638;5.784;2022-08-19T01:28:52;13.82;;;12.45;;
48847;SDS011;36611;51.638;5.784;2022-08-19T01:31:27;15.15;;;11.88;;
48847;SDS011;36611;51.638;5.784;2022-08-19T01:33:59;15.27;;;13.05;;
48847;SDS011;36611;51.638;5.784;2022-08-19T01:36:34;20.02;;;14.80;;
48847;SDS011;36611;51.638;5.784;2022-08-19T01:39:06;15.88;;;14.18;;
48847;SDS011;36611;51.638;5.784;2022-08-19T01:42:12;22.20;;;17.55;;
48847;SDS011;36611;51.638;5.784;2022-08-19T01:44:39;22.88;;;18.75;;
48847;SDS011;36611;51.638;5.784;2022-08-19T01:47:07;20.30;;;18.10;;
48847;SDS011;36611;51.638;5.784;2022-08-19T01:49:35;16.77;;;15.15;;
48847;SDS011;36611;51.638;5.784;2022-08-19T01:52:03;16.45;;;14.68;;
48847;SDS011;36611;51.638;5.784;2022-08-19T01:54:32;17.73;;;15.05;;
48847;SDS011;36611;51.638;5.784;2022-08-19T01:57:07;17.90;;;14.65;;
48847;SDS011;36611;51.638;5.784;2022-08-19T01:59:37;18.15;;;15.50;;
48847;SDS011;36611;51.638;5.784;2022-08-19T02:02:04;15.95;;;14.35;;
48847;SDS011;36611;51.638;5.784;2022-08-19T02:04:35;24.73;;;15.52;;
48847;SDS011;36611;51.638;5.784;2022-08-19T02:07:04;28.38;;;16.42;;
48847;SDS011;36611;51.638;5.784;2022-08-19T02:09:32;17.90;;;15.98;;
48847;SDS011;36611;51.638;5.784;2022-08-19T02:11:58;18.27;;;16.38;;
48847;SDS011;36611;51.638;5.784;2022-08-19T02:14:26;18.45;;;16.08;;
48847;SDS011;36611;51.638;5.784;2022-08-19T02:16:53;26.63;;;16.33;;
48847;SDS011;36611;51.638;5.784;2022-08-19T02:19:19;27.05;;;16.98;;
48847;SDS011;36611;51.638;5.784;2022-08-19T02:21:46;32.97;;;27.98;;
48847;SDS011;36611;51.638;5.784;2022-08-19T02:24:13;27.27;;;24.40;;
48847;SDS011;36611;51.638;5.784;2022-08-19T02:26:40;27.48;;;24.20;;
48847;SDS011;36611;51.638;5.784;2022-08-19T02:29:07;24.45;;;21.77;;
48847;SDS011;36611;51.638;5.784;2022-08-19T02:31:33;18.50;;;16.55;;
48847;SDS011;36611;51.638;5.784;2022-08-19T02:34:00;19.67;;;17.02;;
48847;SDS011;36611;51.638;5.784;2022-08-19T02:36:28;19.05;;;17.00;;
48847;SDS011;36611;51.638;5.784;2022-08-19T02:38:56;24.60;;;18.40;;
48847;SDS011;36611;51.638;5.784;2022-08-19T02:41:26;22.25;;;17.95;;
48847;SDS011;36611;51.638;5.784;2022-08-19T02:43:58;22.05;;;18.30;;
48847;SDS011;36611;51.638;5.784;2022-08-19T02:46:47;27.75;;;20.90;;
48847;SDS011;36611;51.638;5.784;2022-08-19T02:49:17;43.22;;;22.88;;
48847;SDS011;36611;51.638;5.784;2022-08-19T02:51:44;30.52;;;23.92;;
48847;SDS011;36611;51.638;5.784;2022-08-19T02:54:15;38.55;;;28.00;;
48847;SDS011;36611;51.638;5.784;2022-08-19T02:56:42;45.10;;;27.20;;
48847;SDS011;36611;51.638;5.784;2022-08-19T02:59:09;52.25;;;28.33;;
48847;SDS011;36611;51.638;5.784;2022-08-19T03:01:38;32.08;;;26.73;;
48847;SDS011;36611;51.638;5.784;2022-08-19T03:04:07;33.70;;;26.60;;
48847;SDS011;36611;51.638;5.784;2022-08-19T03:06:36;34.13;;;26.88;;
48847;SDS011;36611;51.638;5.784;2022-08-19T03:09:04;32.88;;;27.13;;
48847;SDS011;36611;51.638;5.784;2022-08-19T03:11:32;47.40;;;25.00;;
48847;SDS011;36611;51.638;5.784;2022-08-19T03:13:59;33.03;;;25.50;;
48847;SDS011;36611;51.638;5.784;2022-08-19T03:16:28;43.25;;;22.73;;
48847;SDS011;36611;51.638;5.784;2022-08-19T03:18:59;42.05;;;21.65;;
48847;SDS011;36611;51.638;5.784;2022-08-19T03:21:31;31.05;;;24.83;;
48847;SDS011;36611;51.638;5.784;2022-08-19T03:24:01;35.70;;;28.65;;
48847;SDS011;36611;51.638;5.784;2022-08-19T03:26:31;52.85;;;27.98;;
48847;SDS011;36611;51.638;5.784;2022-08-19T03:29:00;33.65;;;24.77;;
48847;SDS011;36611;51.638;5.784;2022-08-19T03:31:31;33.47;;;22.17;;
48847;SDS011;36611;51.638;5.784;2022-08-19T03:34:20;90.43;;;21.55;;
48847;SDS011;36611;51.638;5.784;2022-08-19T03:36:54;38.17;;;27.60;;
48847;SDS011;36611;51.638;5.784;2022-08-19T03:39:24;57.67;;;26.92;;
48847;SDS011;36611;51.638;5.784;2022-08-19T03:41:52;29.70;;;25.25;;
48847;SDS011;36611;51.638;5.784;2022-08-19T03:44:46;25.73;;;22.55;;
48847;SDS011;36611;51.638;5.784;2022-08-19T03:47:12;40.22;;;22.88;;
48847;SDS011;36611;51.638;5.784;2022-08-19T03:49:42;28.88;;;24.08;;
48847;SDS011;36611;51.638;5.784;2022-08-19T03:52:10;29.70;;;23.52;;
48847;SDS011;36611;51.638;5.784;2022-08-19T03:54:37;24.42;;;21.63;;
48847;SDS011;36611;51.638;5.784;2022-08-19T03:57:04;24.33;;;21.70;;
48847;SDS011;36611;51.638;5.784;2022-08-19T03:59:33;23.25;;;20.50;;
48847;SDS011;36611;51.638;5.784;2022-08-19T04:02:02;27.13;;;21.45;;
48847;SDS011;36611;51.638;5.784;2022-08-19T04:04:35;34.05;;;23.60;;
48847;SDS011;36611;51.638;5.784;2022-08-19T04:07:03;38.17;;;22.13;;
48847;SDS011;36611;51.638;5.784;2022-08-19T04:09:30;40.42;;;25.30;;
48847;SDS011;36611;51.638;5.784;2022-08-19T04:11:56;37.38;;;28.80;;
48847;SDS011;36611;51.638;5.784;2022-08-19T04:14:25;152.90;;;28.98;;
48847;SDS011;36611;51.638;5.784;2022-08-19T04:16:56;32.97;;;26.00;;
48847;SDS011;36611;51.638;5.784;2022-08-19T04:19:23;31.17;;;24.30;;
48847;SDS011;36611;51.638;5.784;2022-08-19T04:21:51;28.50;;;23.98;;
48847;SDS011;36611;51.638;5.784;2022-08-19T04:24:22;29.35;;;23.27;;
48847;SDS011;36611;51.638;5.784;2022-08-19T04:26:50;26.55;;;22.27;;
48847;SDS011;36611;51.638;5.784;2022-08-19T04:29:18;29.88;;;23.55;;
48847;SDS011;36611;51.638;5.784;2022-08-19T04:31:48;25.58;;;21.65;;
48847;SDS011;36611;51.638;5.784;2022-08-19T04:34:18;29.40;;;22.00;;
48847;SDS011;36611;51.638;5.784;2022-08-19T04:36:48;27.05;;;21.50;;
48847;SDS011;36611;51.638;5.784;2022-08-19T04:39:20;26.83;;;21.15;;
48847;SDS011;36611;51.638;5.784;2022-08-19T04:42:12;31.58;;;23.52;;
48847;SDS011;36611;51.638;5.784;2022-08-19T04:44:58;28.98;;;22.58;;
48847;SDS011;36611;51.638;5.784;2022-08-19T04:47:25;28.30;;;22.27;;
48847;SDS011;36611;51.638;5.784;2022-08-19T04:50:12;30.38;;;22.05;;
48847;SDS011;36611;51.638;5.784;2022-08-19T04:52:38;29.02;;;21.38;;
48847;SDS011;36611;51.638;5.784;2022-08-19T04:55:12;28.88;;;21.63;;
48847;SDS011;36611;51.638;5.784;2022-08-19T04:57:39;32.47;;;21.40;;
48847;SDS011;36611;51.638;5.784;2022-08-19T05:00:07;28.25;;;21.88;;
48847;SDS011;36611;51.638;5.784;2022-08-19T05:02:35;29.50;;;22.77;;
48847;SDS011;36611;51.638;5.784;2022-08-19T05:05:02;34.60;;;24.58;;
48847;SDS011;36611;51.638;5.784;2022-08-19T05:07:29;32.30;;;24.73;;
48847;SDS011;36611;51.638;5.784;2022-08-19T05:09:56;31.27;;;23.75;;
48847;SDS011;36611;51.638;5.784;2022-08-19T05:12:24;38.20;;;23.58;;
48847;SDS011;36611;51.638;5.784;2022-08-19T05:14:54;29.45;;;20.90;;
48847;SDS011;36611;51.638;5.784;2022-08-19T05:17:23;32.72;;;21.65;;
48847;SDS011;36611;51.638;5.784;2022-08-19T05:19:54;33.95;;;23.88;;
48847;SDS011;36611;51.638;5.784;2022-08-19T05:22:40;30.85;;;24.35;;
48847;SDS011;36611;51.638;5.784;2022-08-19T05:25:10;33.05;;;25.10;;
48847;SDS011;36611;51.638;5.784;2022-08-19T05:27:40;33.03;;;25.58;;
48847;SDS011;36611;51.638;5.784;2022-08-19T05:30:08;35.75;;;27.33;;
48847;SDS011;36611;51.638;5.784;2022-08-19T05:32:35;37.83;;;29.45;;
48847;SDS011;36611;51.638;5.784;2022-08-19T05:35:03;34.38;;;28.67;;
48847;SDS011;36611;51.638;5.784;2022-08-19T05:37:30;33.72;;;27.20;;
48847;SDS011;36611;51.638;5.784;2022-08-19T05:39:57;35.83;;;26.70;;
48847;SDS011;36611;51.638;5.784;2022-08-19T05:42:24;33.47;;;26.02;;
48847;SDS011;36611;51.638;5.784;2022-08-19T05:44:52;32.95;;;25.60;;
48847;SDS011;36611;51.638;5.784;2022-08-19T05:47:19;31.00;;;25.75;;
48847;SDS011;36611;51.638;5.784;2022-08-19T05:49:46;32.10;;;24.90;;
48847;SDS011;36611;51.638;5.784;2022-08-19T05:52:16;31.83;;;24.42;;
48847;SDS011;36611;51.638;5.784;2022-08-19T05:54:44;34.72;;;26.92;;
48847;SDS011;36611;51.638;5.784;2022-08-19T05:57:17;34.83;;;25.00;;
48847;SDS011;36611;51.638;5.784;2022-08-19T05:59:44;36.28;;;27.73;;
48847;SDS011;36611;51.638;5.784;2022-08-19T06:02:14;39.20;;;29.58;;
48847;SDS011;36611;51.638;5.784;2022-08-19T06:04:41;45.85;;;30.23;;
48847;SDS011;36611;51.638;5.784;2022-08-19T06:07:10;51.33;;;36.25;;
48847;SDS011;36611;51.638;5.784;2022-08-19T06:09:38;57.28;;;37.80;;
48847;SDS011;36611;51.638;5.784;2022-08-19T06:12:08;65.40;;;43.20;;
48847;SDS011;36611;51.638;5.784;2022-08-19T06:14:39;63.03;;;41.50;;
48847;SDS011;36611;51.638;5.784;2022-08-19T06:17:07;68.95;;;44.35;;
48847;SDS011;36611;51.638;5.784;2022-08-19T06:19:34;63.95;;;43.30;;
48847;SDS011;36611;51.638;5.784;2022-08-19T06:22:06;69.35;;;44.50;;
48847;SDS011;36611;51.638;5.784;2022-08-19T06:24:35;64.03;;;43.35;;
48847;SDS011;36611;51.638;5.784;2022-08-19T06:27:02;66.95;;;44.28;;
48847;SDS011;36611;51.638;5.784;2022-08-19T06:29:29;65.82;;;43.25;;
48847;SDS011;36611;51.638;5.784;2022-08-19T06:31:57;61.58;;;42.63;;
48847;SDS011;36611;51.638;5.784;2022-08-19T06:34:27;63.35;;;41.33;;
48847;SDS011;36611;51.638;5.784;2022-08-19T06:36:55;58.75;;;40.13;;
48847;SDS011;36611;51.638;5.784;2022-08-19T06:39:24;63.00;;;40.65;;
48847;SDS011;36611;51.638;5.784;2022-08-19T06:41:55;59.72;;;40.80;;
48847;SDS011;36611;51.638;5.784;2022-08-19T06:44:33;58.30;;;39.67;;
48847;SDS011;36611;51.638;5.784;2022-08-19T06:47:09;60.58;;;39.47;;
48847;SDS011;36611;51.638;5.784;2022-08-19T06:49:40;55.83;;;39.38;;
48847;SDS011;36611;51.638;5.784;2022-08-19T06:52:07;59.22;;;38.33;;
48847;SDS011;36611;51.638;5.784;2022-08-19T06:54:35;60.13;;;40.20;;
48847;SDS011;36611;51.638;5.784;2022-08-19T06:57:22;55.03;;;37.92;;
48847;SDS011;36611;51.638;5.784;2022-08-19T06:59:49;53.40;;;36.03;;
48847;SDS011;36611;51.638;5.784;2022-08-19T07:02:16;58.38;;;36.17;;
48847;SDS011;36611;51.638;5.784;2022-08-19T07:04:45;50.85;;;36.45;;
48847;SDS011;36611;51.638;5.784;2022-08-19T07:07:13;52.85;;;36.33;;
48847;SDS011;36611;51.638;5.784;2022-08-19T07:09:46;51.25;;;35.72;;
48847;SDS011;36611;51.638;5.784;2022-08-19T07:12:24;47.83;;;34.28;;
48847;SDS011;36611;51.638;5.784;2022-08-19T07:14:51;47.90;;;35.00;;
48847;SDS011;36611;51.638;5.784;2022-08-19T07:17:19;46.25;;;33.05;;
48847;SDS011;36611;51.638;5.784;2022-08-19T07:19:46;48.58;;;32.95;;
48847;SDS011;36611;51.638;5.784;2022-08-19T07:22:14;46.03;;;32.55;;
48847;SDS011;36611;51.638;5.784;2022-08-19T07:24:42;46.75;;;32.00;;
48847;SDS011;36611;51.638;5.784;2022-08-19T07:27:17;47.97;;;33.80;;
48847;SDS011;36611;51.638;5.784;2022-08-19T07:29:50;56.55;;;34.25;;
48847;SDS011;36611;51.638;5.784;2022-08-19T07:32:23;48.80;;;32.30;;
48847;SDS011;36611;51.638;5.784;2022-08-19T07:34:54;48.85;;;33.28;;
48847;SDS011;36611;51.638;5.784;2022-08-19T07:37:22;47.85;;;32.72;;
48847;SDS011;36611;51.638;5.784;2022-08-19T07:39:58;43.60;;;31.65;;
48847;SDS011;36611;51.638;5.784;2022-08-19T07:42:25;43.50;;;32.10;;
48847;SDS011;36611;51.638;5.784;2022-08-19T07:44:52;42.33;;;31.48;;
48847;SDS011;36611;51.638;5.784;2022-08-19T07:47:19;47.83;;;32.92;;
48847;SDS011;36611;51.638;5.784;2022-08-19T07:50:06;50.55;;;33.97;;
48847;SDS011;36611;51.638;5.784;2022-08-19T07:52:36;45.72;;;32.33;;
48847;SDS011;36611;51.638;5.784;2022-08-19T07:55:06;44.97;;;32.35;;
48847;SDS011;36611;51.638;5.784;2022-08-19T07:57:54;44.45;;;30.98;;
48847;SDS011;36611;51.638;5.784;2022-08-19T08:00:21;44.97;;;31.17;;
48847;SDS011;36611;51.638;5.784;2022-08-19T08:02:50;45.13;;;32.58;;
48847;SDS011;36611;51.638;5.784;2022-08-19T08:05:23;41.13;;;31.40;;
48847;SDS011;36611;51.638;5.784;2022-08-19T08:08:10;41.92;;;31.45;;
48847;SDS011;36611;51.638;5.784;2022-08-19T08:10:57;43.50;;;30.25;;
48847;SDS011;36611;51.638;5.784;2022-08-19T08:13:31;42.53;;;31.30;;
48847;SDS011;36611;51.638;5.784;2022-08-19T08:16:01;44.88;;;31.02;;
48847;SDS011;36611;51.638;5.784;2022-08-19T08:18:29;40.13;;;29.42;;
48847;SDS011;36611;51.638;5.784;2022-08-19T08:20:56;39.15;;;29.02;;
48847;SDS011;36611;51.638;5.784;2022-08-19T08:23:26;35.95;;;27.23;;
48847;SDS011;36611;51.638;5.784;2022-08-19T08:25:53;40.88;;;27.70;;
48847;SDS011;36611;51.638;5.784;2022-08-19T08:28:24;36.33;;;26.30;;
48847;SDS011;36611;51.638;5.784;2022-08-19T08:30:55;30.40;;;23.90;;
48847;SDS011;36611;51.638;5.784;2022-08-19T08:33:27;30.95;;;23.33;;
48847;SDS011;36611;51.638;5.784;2022-08-19T08:36:09;34.08;;;24.98;;
48847;SDS011;36611;51.638;5.784;2022-08-19T08:38:37;32.78;;;23.42;;
48847;SDS011;36611;51.638;5.784;2022-08-19T08:41:11;31.15;;;21.90;;
48847;SDS011;36611;51.638;5.784;2022-08-19T08:43:55;30.65;;;22.73;;
48847;SDS011;36611;51.638;5.784;2022-08-19T08:46:25;26.73;;;20.33;;
48847;SDS011;36611;51.638;5.784;2022-08-19T08:49:26;26.98;;;20.48;;
48847;SDS011;36611;51.638;5.784;2022-08-19T08:54:35;23.92;;;19.38;;
48847;SDS011;36611;51.638;5.784;2022-08-19T08:57:07;25.58;;;19.35;;
48847;SDS011;36611;51.638;5.784;2022-08-19T08:59:41;22.08;;;17.52;;
48847;SDS011;36611;51.638;5.784;2022-08-19T09:02:15;23.52;;;18.60;;
48847;SDS011;36611;51.638;5.784;2022-08-19T09:04:42;24.88;;;17.83;;
48847;SDS011;36611;51.638;5.784;2022-08-19T09:07:24;26.67;;;18.77;;
48847;SDS011;36611;51.638;5.784;2022-08-19T09:10:44;19.50;;;15.98;;
48847;SDS011;36611;51.638;5.784;2022-08-19T09:16:05;22.85;;;17.40;;
48847;SDS011;36611;51.638;5.784;2022-08-19T09:18:39;22.10;;;18.60;;
48847;SDS011;36611;51.638;5.784;2022-08-19T09:21:08;24.88;;;19.15;;
48847;SDS011;36611;51.638;5.784;2022-08-19T09:23:39;24.00;;;19.33;;
48847;SDS011;36611;51.638;5.784;2022-08-19T09:26:09;23.92;;;20.08;;
48847;SDS011;36611;51.638;5.784;2022-08-19T09:28:42;25.08;;;21.75;;
48847;SDS011;36611;51.638;5.784;2022-08-19T09:31:15;27.20;;;22.75;;
48847;SDS011;36611;51.638;5.784;2022-08-19T09:33:49;27.92;;;24.13;;
48847;SDS011;36611;51.638;5.784;2022-08-19T09:36:18;30.75;;;24.10;;
48847;SDS011;36611;51.638;5.784;2022-08-19T09:39:00;29.15;;;23.90;;
48847;SDS011;36611;51.638;5.784;2022-08-19T09:41:27;29.75;;;24.95;;
48847;SDS011;36611;51.638;5.784;2022-08-19T09:43:57;32.50;;;25.80;;
48847;SDS011;36611;51.638;5.784;2022-08-19T09:46:27;32.08;;;25.30;;
48847;SDS011;36611;51.638;5.784;2022-08-19T09:48:57;33.80;;;27.58;;
48847;SDS011;36611;51.638;5.784;2022-08-19T09:51:32;38.95;;;26.98;;
48847;SDS011;36611;51.638;5.784;2022-08-19T09:54:02;32.30;;;26.27;;
48847;SDS011;36611;51.638;5.784;2022-08-19T09:56:30;30.73;;;25.73;;
48847;SDS011;36611;51.638;5.784;2022-08-19T09:58:59;35.22;;;26.20;;
48847;SDS011;36611;51.638;5.784;2022-08-19T10:01:27;31.75;;;24.17;;
48847;SDS011;36611;51.638;5.784;2022-08-19T10:03:58;31.90;;;25.83;;
48847;SDS011;36611;51.638;5.784;2022-08-19T10:06:27;32.10;;;25.42;;
48847;SDS011;36611;51.638;5.784;2022-08-19T10:09:12;30.52;;;26.02;;
48847;SDS011;36611;51.638;5.784;2022-08-19T10:11:41;31.42;;;23.25;;
48847;SDS011;36611;51.638;5.784;2022-08-19T10:14:21;23.42;;;20.92;;
48847;SDS011;36611;51.638;5.784;2022-08-19T10:16:50;30.58;;;19.92;;
48847;SDS011;36611;51.638;5.784;2022-08-19T10:19:18;22.98;;;18.58;;
48847;SDS011;36611;51.638;5.784;2022-08-19T10:21:51;21.73;;;17.13;;
48847;SDS011;36611;51.638;5.784;2022-08-19T10:24:22;24.27;;;17.80;;
48847;SDS011;36611;51.638;5.784;2022-08-19T10:26:50;22.90;;;18.35;;
48847;SDS011;36611;51.638;5.784;2022-08-19T10:29:24;26.42;;;19.40;;
48847;SDS011;36611;51.638;5.784;2022-08-19T10:32:02;24.13;;;18.55;;
48847;SDS011;36611;51.638;5.784;2022-08-19T10:34:38;22.45;;;18.95;;
48847;SDS011;36611;51.638;5.784;2022-08-19T10:37:13;22.83;;;18.00;;
48847;SDS011;36611;51.638;5.784;2022-08-19T10:39:45;20.13;;;17.65;;
48847;SDS011;36611;51.638;5.784;2022-08-19T10:42:14;25.15;;;18.30;;
48847;SDS011;36611;51.638;5.784;2022-08-19T10:44:42;29.73;;;18.85;;
48847;SDS011;36611;51.638;5.784;2022-08-19T10:47:09;24.17;;;19.33;;
48847;SDS011;36611;51.638;5.784;2022-08-19T10:49:51;23.50;;;18.30;;
48847;SDS011;36611;51.638;5.784;2022-08-19T10:52:42;24.67;;;18.35;;
48847;SDS011;36611;51.638;5.784;2022-08-19T10:55:20;24.35;;;17.95;;
48847;SDS011;36611;51.638;5.784;2022-08-19T10:58:14;24.50;;;19.60;;
48847;SDS011;36611;51.638;5.784;2022-08-19T11:00:43;22.33;;;18.95;;
48847;SDS011;36611;51.638;5.784;2022-08-19T11:03:18;22.98;;;18.40;;
48847;SDS011;36611;51.638;5.784;2022-08-19T11:05:45;28.92;;;20.45;;
48847;SDS011;36611;51.638;5.784;2022-08-19T11:08:11;26.48;;;19.05;;
48847;SDS011;36611;51.638;5.784;2022-08-19T11:10:49;26.00;;;20.02;;
48847;SDS011;36611;51.638;5.784;2022-08-19T11:13:23;24.00;;;19.33;;
48847;SDS011;36611;51.638;5.784;2022-08-19T11:15:57;23.77;;;18.83;;
48847;SDS011;36611;51.638;5.784;2022-08-19T11:18:34;25.52;;;18.73;;
48847;SDS011;36611;51.638;5.784;2022-08-19T11:21:05;28.35;;;20.88;;
48847;SDS011;36611;51.638;5.784;2022-08-19T11:23:37;23.55;;;18.30;;
48847;SDS011;36611;51.638;5.784;2022-08-19T11:26:04;22.15;;;17.48;;
48847;SDS011;36611;51.638;5.784;2022-08-19T11:28:31;24.13;;;18.77;;
48847;SDS011;36611;51.638;5.784;2022-08-19T11:30:57;27.05;;;20.58;;
48847;SDS011;36611;51.638;5.784;2022-08-19T11:33:29;23.98;;;19.00;;
48847;SDS011;36611;51.638;5.784;2022-08-19T11:35:57;25.83;;;21.00;;
48847;SDS011;36611;51.638;5.784;2022-08-19T11:38:25;26.88;;;19.83;;
48847;SDS011;36611;51.638;5.784;2022-08-19T11:40:56;31.67;;;21.85;;
48847;SDS011;36611;51.638;5.784;2022-08-19T11:43:28;29.02;;;19.02;;
48847;SDS011;36611;51.638;5.784;2022-08-19T11:46:03;27.15;;;20.75;;
48847;SDS011;36611;51.638;5.784;2022-08-19T11:48:33;26.13;;;20.25;;
48847;SDS011;36611;51.638;5.784;2022-08-19T11:51:02;22.00;;;16.90;;
48847;SDS011;36611;51.638;5.784;2022-08-19T11:53:36;21.48;;;16.58;;
48847;SDS011;36611;51.638;5.784;2022-08-19T11:56:03;20.65;;;16.08;;
48847;SDS011;36611;51.638;5.784;2022-08-19T11:58:30;22.63;;;15.38;;
48847;SDS011;36611;51.638;5.784;2022-08-19T12:00:57;24.88;;;16.27;;
48847;SDS011;36611;51.638;5.784;2022-08-19T12:03:25;20.15;;;15.38;;
48847;SDS011;36611;51.638;5.784;2022-08-19T12:05:52;23.08;;;16.95;;
48847;SDS011;36611;51.638;5.784;2022-08-19T12:08:19;23.00;;;15.80;;
48847;SDS011;36611;51.638;5.784;2022-08-19T12:10:45;21.05;;;14.90;;
48847;SDS011;36611;51.638;5.784;2022-08-19T12:13:16;24.00;;;17.50;;
48847;SDS011;36611;51.638;5.784;2022-08-19T12:15:45;18.75;;;14.80;;
48847;SDS011;36611;51.638;5.784;2022-08-19T12:18:13;15.55;;;13.70;;
48847;SDS011;36611;51.638;5.784;2022-08-19T12:20:41;19.15;;;14.98;;
48847;SDS011;36611;51.638;5.784;2022-08-19T12:23:10;19.13;;;15.30;;
48847;SDS011;36611;51.638;5.784;2022-08-19T12:25:37;16.52;;;13.05;;
48847;SDS011;36611;51.638;5.784;2022-08-19T12:28:16;13.75;;;11.60;;
48847;SDS011;36611;51.638;5.784;2022-08-19T12:30:43;15.55;;;11.48;;
48847;SDS011;36611;51.638;5.784;2022-08-19T12:33:13;19.60;;;15.68;;
48847;SDS011;36611;51.638;5.784;2022-08-19T12:35:41;19.92;;;15.38;;
48847;SDS011;36611;51.638;5.784;2022-08-19T12:38:11;17.38;;;14.23;;
48847;SDS011;36611;51.638;5.784;2022-08-19T12:40:37;16.70;;;14.32;;
48847;SDS011;36611;51.638;5.784;2022-08-19T12:43:10;18.45;;;13.20;;
48847;SDS011;36611;51.638;5.784;2022-08-19T12:45:37;19.63;;;14.95;;
48847;SDS011;36611;51.638;5.784;2022-08-19T12:48:06;21.40;;;15.88;;
48847;SDS011;36611;51.638;5.784;2022-08-19T12:50:52;19.73;;;15.75;;
48847;SDS011;36611;51.638;5.784;2022-08-19T12:53:23;18.13;;;14.05;;
48847;SDS011;36611;51.638;5.784;2022-08-19T12:55:56;20.60;;;15.30;;
48847;SDS011;36611;51.638;5.784;2022-08-19T12:58:26;18.55;;;14.73;;
48847;SDS011;36611;51.638;5.784;2022-08-19T13:00:55;18.20;;;14.80;;
48847;SDS011;36611;51.638;5.784;2022-08-19T13:03:22;18.35;;;15.43;;
48847;SDS011;36611;51.638;5.784;2022-08-19T13:05:55;21.05;;;17.67;;
48847;SDS011;36611;51.638;5.784;2022-08-19T13:08:22;20.60;;;15.73;;
48847;SDS011;36611;51.638;5.784;2022-08-19T13:10:49;24.38;;;18.65;;
48847;SDS011;36611;51.638;5.784;2022-08-19T13:13:21;26.58;;;17.58;;
48847;SDS011;36611;51.638;5.784;2022-08-19T13:15:48;20.80;;;16.35;;
48847;SDS011;36611;51.638;5.784;2022-08-19T13:18:14;19.00;;;16.30;;
48847;SDS011;36611;51.638;5.784;2022-08-19T13:20:41;22.45;;;16.40;;
48847;SDS011;36611;51.638;5.784;2022-08-19T13:23:19;19.83;;;15.35;;
48847;SDS011;36611;51.638;5.784;2022-08-19T13:25:54;18.75;;;14.27;;
48847;SDS011;36611;51.638;5.784;2022-08-19T13:28:22;17.40;;;12.82;;
48847;SDS011;36611;51.638;5.784;2022-08-19T13:30:54;18.00;;;12.27;;
48847;SDS011;36611;51.638;5.784;2022-08-19T13:33:40;17.17;;;13.90;;
48847;SDS011;36611;51.638;5.784;2022-08-19T13:36:06;23.67;;;14.63;;
48847;SDS011;36611;51.638;5.784;2022-08-19T13:38:33;18.35;;;13.93;;
48847;SDS011;36611;51.638;5.784;2022-08-19T13:41:04;17.30;;;12.52;;
48847;SDS011;36611;51.638;5.784;2022-08-19T13:43:39;18.25;;;14.40;;
48847;SDS011;36611;51.638;5.784;2022-08-19T13:46:08;19.40;;;14.18;;
48847;SDS011;36611;51.638;5.784;2022-08-19T13:48:37;21.77;;;14.70;;
48847;SDS011;36611;51.638;5.784;2022-08-19T13:51:04;17.60;;;14.10;;
48847;SDS011;36611;51.638;5.784;2022-08-19T13:53:31;18.48;;;14.40;;
48847;SDS011;36611;51.638;5.784;2022-08-19T13:55:58;22.73;;;14.75;;
48847;SDS011;36611;51.638;5.784;2022-08-19T13:58:24;24.13;;;14.82;;
48847;SDS011;36611;51.638;5.784;2022-08-19T14:00:51;21.45;;;16.05;;
48847;SDS011;36611;51.638;5.784;2022-08-19T14:03:19;22.20;;;17.30;;
48847;SDS011;36611;51.638;5.784;2022-08-19T14:05:45;21.23;;;17.83;;
48847;SDS011;36611;51.638;5.784;2022-08-19T14:08:12;23.58;;;17.05;;
48847;SDS011;36611;51.638;5.784;2022-08-19T14:10:40;21.42;;;16.30;;
48847;SDS011;36611;51.638;5.784;2022-08-19T14:13:12;21.83;;;18.15;;
48847;SDS011;36611;51.638;5.784;2022-08-19T14:15:40;22.02;;;16.60;;
48847;SDS011;36611;51.638;5.784;2022-08-19T14:18:07;24.02;;;18.60;;
48847;SDS011;36611;51.638;5.784;2022-08-19T14:20:34;23.55;;;18.65;;
48847;SDS011;36611;51.638;5.784;2022-08-19T14:25:33;27.20;;;20.50;;
48847;SDS011;36611;51.638;5.784;2022-08-19T14:28:00;27.58;;;18.88;;
48847;SDS011;36611;51.638;5.784;2022-08-19T14:30:28;23.98;;;19.80;;
48847;SDS011;36611;51.638;5.784;2022-08-19T14:32:57;24.70;;;19.30;;
48847;SDS011;36611;51.638;5.784;2022-08-19T14:35:41;22.42;;;18.02;;
48847;SDS011;36611;51.638;5.784;2022-08-19T14:38:14;18.58;;;14.52;;
48847;SDS011;36611;51.638;5.784;2022-08-19T14:40:49;16.85;;;13.30;;
48847;SDS011;36611;51.638;5.784;2022-08-19T14:43:21;18.58;;;15.07;;
48847;SDS011;36611;51.638;5.784;2022-08-19T14:45:48;21.63;;;17.25;;
48847;SDS011;36611;51.638;5.784;2022-08-19T14:48:15;17.75;;;12.65;;
48847;SDS011;36611;51.638;5.784;2022-08-19T14:50:45;14.85;;;11.10;;